Ahoskie, North Carolina
Current Conditions -  °F | °C
As of 10:55 AM on Thursday 27 Nov 2014 (Local Time) from KASJ Reporting Station
Broken Clouds Broken Clouds  
Wind Chill:   Ceiling: 7500
Heat Index:   Visibility: 10mi
Dew Point:   Wind: 3mph
Humidity: 92%   Direction: 20°NNE
Pressure: 30.04"   Gusts: NA
Location:  36.29°N, 76.98°W
Report Text: KASJ 271555Z AUTO 02003KT 10SM SCT007 BKN075 BKN085 05/04 A3004 RMK AO2 T00540042
Loading
Personal Weather Stations






























Interactive Weather Map New forecast layout! Learn more

10-Day Weather Forecast

Advertisements
Track Severe Weather on mobile